Time;durP1;ratioP1;P1;durP2;ratioP2;P2;SDS_P1;SDS_P2;PMS_P1;PMS_P2;Temp;Humidity;BMP_temperature;BMP_pressure;BME280_temperature;BME280_humidity;BME280_pressure;Samples;Min_cycle;Max_cycle;Signal;HPM_P1;HPM_P2
2023/08/16 00:01:42;;;;;;;10.65;5.40;;;22.60;99.90;;;;;;6217384;23;20016;-81
2023/08/16 00:04:09;;;;;;;7.70;5.32;;;22.60;99.90;;;;;;6217861;23;20099;-80
2023/08/16 00:06:40;;;;;;;7.47;5.25;;;22.60;99.90;;;;;;6217239;23;20026;-80
2023/08/16 00:09:08;;;;;;;11.40;5.35;;;22.50;99.90;;;;;;6216154;23;20074;-80
2023/08/16 00:11:36;;;;;;;8.25;5.65;;;22.50;99.90;;;;;;6217523;23;20031;-80
2023/08/16 00:14:03;;;;;;;9.48;5.43;;;22.50;99.90;;;;;;6218147;23;20663;-80
2023/08/16 00:16:30;;;;;;;10.52;5.60;;;22.40;99.90;;;;;;6192591;23;20036;-80
2023/08/16 00:18:58;;;;;;;8.73;5.45;;;22.40;99.90;;;;;;6217786;23;20448;-81
2023/08/16 00:21:25;;;;;;;8.82;5.18;;;22.40;99.90;;;;;;6216895;23;20070;-81
2023/08/16 00:23:52;;;;;;;13.27;5.55;;;22.40;99.90;;;;;;6217681;23;20008;-81
2023/08/16 00:26:19;;;;;;;9.13;5.60;;;22.40;99.90;;;;;;6217439;23;20027;-81
2023/08/16 00:28:48;;;;;;;12.25;6.25;;;22.30;99.90;;;;;;6193074;23;20565;-81
2023/08/16 00:31:15;;;;;;;11.18;6.00;;;22.40;99.90;;;;;;6193071;23;20023;-81
2023/08/16 00:33:43;;;;;;;8.57;5.57;;;22.30;99.90;;;;;;6216807;23;20086;-81
2023/08/16 00:36:11;;;;;;;8.45;6.07;;;22.50;99.90;;;;;;6192884;23;20719;-81
2023/08/16 00:38:42;;;;;;;9.23;5.60;;;22.20;99.90;;;;;;6216662;23;20116;-80
2023/08/16 00:41:11;;;;;;;11.13;5.17;;;22.20;99.90;;;;;;6193557;23;20016;-80
2023/08/16 00:43:38;;;;;;;16.13;7.07;;;22.20;99.90;;;;;;6218098;23;20705;-80
2023/08/16 00:46:10;;;;;;;9.60;5.65;;;22.20;99.90;;;;;;6217276;23;20026;-80
2023/08/16 00:48:41;;;;;;;11.27;6.25;;;22.10;99.90;;;;;;6217949;23;20016;-80
2023/08/16 00:51:09;;;;;;;10.75;6.32;;;22.10;99.90;;;;;;6217125;23;20626;-80
2023/08/16 00:53:38;;;;;;;6.18;5.45;;;22.10;99.90;;;;;;6193184;23;20020;-79
2023/08/16 00:56:12;;;;;;;12.27;6.75;;;22.10;99.90;;;;;;6218798;23;20027;-80
2023/08/16 00:58:39;;;;;;;8.43;5.57;;;22.10;99.90;;;;;;6193306;23;20059;-80
2023/08/16 01:01:07;;;;;;;10.70;6.07;;;22.10;99.90;;;;;;6217269;23;20020;-80
2023/08/16 01:03:34;;;;;;;8.10;5.15;;;22.10;99.90;;;;;;6217395;23;20023;-80
2023/08/16 01:06:03;;;;;;;10.65;5.90;;;22.10;99.90;;;;;;6216945;23;20023;-80
2023/08/16 01:08:32;;;;;;;8.38;5.78;;;22.10;99.90;;;;;;6216805;23;20028;-80
2023/08/16 01:11:27;;;;;;;13.68;6.55;;;21.80;99.90;;;;;;6218134;23;20730;-80
2023/08/16 01:14:00;;;;;;;10.00;6.35;;;22.00;99.90;;;;;;6191755;23;20378;-80
2023/08/16 01:16:29;;;;;;;8.73;6.07;;;22.00;99.90;;;;;;6192141;23;20024;-80
2023/08/16 01:18:58;;;;;;;8.32;5.85;;;21.90;99.90;;;;;;6217196;23;20428;-80
2023/08/16 01:21:26;;;;;;;8.02;6.22;;;22.90;99.90;;;;;;6216739;23;20641;-80
2023/08/16 01:24:08;;;;;;;10.38;5.97;;;21.90;99.90;;;;;;6217309;23;20146;-80
2023/08/16 01:26:37;;;;;;;12.75;6.45;;;21.80;99.90;;;;;;6167261;23;20024;-80
2023/08/16 01:29:07;;;;;;;10.73;5.60;;;21.90;99.90;;;;;;6217606;23;20764;-80
2023/08/16 01:31:35;;;;;;;11.00;5.68;;;21.80;99.90;;;;;;6193145;23;20024;-80
2023/08/16 01:34:02;;;;;;;11.60;6.90;;;21.70;99.90;;;;;;6215615;23;20020;-80
2023/08/16 01:36:29;;;;;;;8.73;5.70;;;21.70;99.90;;;;;;6191108;23;20028;-80
2023/08/16 01:38:57;;;;;;;9.13;5.75;;;21.80;99.90;;;;;;6163772;23;20459;-80
2023/08/16 01:41:51;;;;;;;7.57;5.28;;;21.80;99.90;;;;;;6161441;23;20440;-80
2023/08/16 01:44:20;;;;;;;11.55;5.72;;;21.70;99.90;;;;;;6185397;23;20024;-80
2023/08/16 01:46:49;;;;;;;8.70;5.80;;;21.80;99.90;;;;;;6161644;23;20031;-80
2023/08/16 01:49:17;;;;;;;9.45;5.80;;;21.80;99.90;;;;;;6161741;23;20349;-80
2023/08/16 01:51:44;;;;;;;11.18;6.70;;;21.70;99.90;;;;;;6186685;23;20036;-80
2023/08/16 01:54:12;;;;;;;10.10;6.15;;;21.70;99.90;;;;;;6162906;23;20025;-80
2023/08/16 01:56:40;;;;;;;9.65;5.90;;;21.70;99.90;;;;;;6187786;23;20513;-80
2023/08/16 01:59:08;;;;;;;11.05;5.28;;;21.70;99.90;;;;;;6163819;23;20055;-80
2023/08/16 02:01:44;;;;;;;10.20;7.10;;;21.70;99.90;;;;;;6165062;23;20812;-80
2023/08/16 02:04:11;;;;;;;10.15;6.13;;;21.70;99.90;;;;;;6187318;23;20023;-80
2023/08/16 02:06:39;;;;;;;9.93;6.50;;;21.60;99.90;;;;;;6163897;23;20087;-80
2023/08/16 02:09:06;;;;;;;10.35;6.57;;;21.60;99.90;;;;;;6162291;23;20523;-80
2023/08/16 02:11:33;;;;;;;11.63;6.63;;;21.60;99.90;;;;;;6187972;23;20027;-80
2023/08/16 02:14:00;;;;;;;12.00;6.05;;;21.60;99.90;;;;;;6188160;23;20359;-80
2023/08/16 02:16:30;;;;;;;11.10;6.32;;;21.60;99.90;;;;;;6162103;23;20029;-80
2023/08/16 02:18:58;;;;;;;7.07;5.03;;;21.60;99.90;;;;;;6162139;23;20794;-80
2023/08/16 02:21:27;;;;;;;8.15;5.47;;;21.90;99.90;;;;;;6162703;23;20540;-80
2023/08/16 02:23:57;;;;;;;10.30;5.70;;;21.80;99.90;;;;;;6162974;23;20071;-80
2023/08/16 02:26:25;;;;;;;11.43;6.05;;;21.60;99.90;;;;;;6186755;23;20021;-80
2023/08/16 02:28:52;;;;;;;9.32;5.88;;;21.50;99.90;;;;;;6162094;23;20016;-80
2023/08/16 02:31:19;;;;;;;11.02;6.43;;;21.50;99.90;;;;;;6162701;23;20028;-80
2023/08/16 02:33:46;;;;;;;10.82;5.80;;;21.40;99.90;;;;;;6161621;23;20112;-80
2023/08/16 02:36:17;;;;;;;9.32;6.15;;;21.40;99.90;;;;;;6187815;23;20031;-80
2023/08/16 02:38:44;;;;;;;12.13;6.38;;;21.40;99.90;;;;;;6212708;23;20085;-80
2023/08/16 02:41:12;;;;;;;11.45;5.90;;;21.30;99.90;;;;;;6191639;23;20369;-80
2023/08/16 02:43:39;;;;;;;9.48;5.68;;;21.30;99.90;;;;;;6216991;23;20026;-80
2023/08/16 02:46:07;;;;;;;10.25;6.38;;;21.30;99.90;;;;;;6191510;23;20024;-80
2023/08/16 02:48:34;;;;;;;7.63;5.95;;;21.30;99.90;;;;;;6192111;23;20024;-80
2023/08/16 02:51:01;;;;;;;10.65;5.45;;;21.30;99.90;;;;;;6192614;23;20086;-80
2023/08/16 02:53:29;;;;;;;12.23;5.72;;;21.30;99.90;;;;;;6193089;23;20048;-80
2023/08/16 02:55:57;;;;;;;7.97;5.97;;;21.30;99.90;;;;;;6192019;23;20074;-80
2023/08/16 02:58:24;;;;;;;9.32;5.50;;;21.30;99.90;;;;;;6191804;23;20021;-80
2023/08/16 03:00:52;;;;;;;10.13;6.60;;;21.30;99.90;;;;;;6217994;23;20035;-80
2023/08/16 03:03:20;;;;;;;8.00;5.40;;;21.20;99.90;;;;;;6194818;23;20027;-80
2023/08/16 03:05:48;;;;;;;13.90;6.97;;;21.20;99.90;;;;;;6195159;23;20028;-80
2023/08/16 03:08:15;;;;;;;8.40;5.68;;;21.20;99.90;;;;;;6193452;23;20066;-80
2023/08/16 03:10:45;;;;;;;8.77;6.13;;;21.20;99.90;;;;;;6219322;23;20822;-80
2023/08/16 03:13:13;;;;;;;7.60;6.18;;;21.20;99.90;;;;;;6218220;23;20031;-80
2023/08/16 03:15:40;;;;;;;8.68;6.32;;;21.10;99.90;;;;;;6219881;23;20020;-80
2023/08/16 03:18:08;;;;;;;12.30;6.03;;;21.20;99.90;;;;;;6219334;23;20028;-80
2023/08/16 03:20:35;;;;;;;10.77;6.32;;;21.30;99.90;;;;;;6218773;23;20024;-80
2023/08/16 03:23:07;;;;;;;14.00;7.88;;;21.10;99.90;;;;;;6220716;23;20016;-80
2023/08/16 03:25:34;;;;;;;12.55;6.28;;;21.10;99.90;;;;;;6193903;23;20444;-80
2023/08/16 03:28:01;;;;;;;11.23;6.63;;;21.00;99.90;;;;;;6194496;23;20020;-80
2023/08/16 03:30:29;;;;;;;10.13;6.10;;;21.00;99.90;;;;;;6194544;23;20027;-80
2023/08/16 03:32:57;;;;;;;8.65;6.85;;;21.10;99.90;;;;;;6220954;23;20047;-80
2023/08/16 03:35:24;;;;;;;8.40;6.32;;;21.00;99.90;;;;;;6195878;23;20024;-80
2023/08/16 03:37:52;;;;;;;10.93;6.07;;;21.00;99.90;;;;;;6218802;23;20024;-80
2023/08/16 03:40:20;;;;;;;12.48;6.13;;;20.80;99.90;;;;;;6218672;23;20055;-80
2023/08/16 03:42:47;;;;;;;10.15;6.60;;;21.00;99.90;;;;;;6194184;23;20032;-80
2023/08/16 03:45:14;;;;;;;10.18;6.78;;;21.00;99.90;;;;;;6194926;23;20408;-80
2023/08/16 03:47:43;;;;;;;9.32;6.88;;;21.00;99.90;;;;;;6218229;23;20024;-80
2023/08/16 03:50:10;;;;;;;9.48;6.57;;;20.90;99.90;;;;;;6219322;23;20020;-80
2023/08/16 03:52:37;;;;;;;12.35;7.07;;;21.00;99.90;;;;;;6221174;23;20348;-81
2023/08/16 03:55:05;;;;;;;13.32;6.63;;;20.90;99.90;;;;;;6218957;23;20027;-80
2023/08/16 03:57:33;;;;;;;8.75;6.53;;;20.40;99.90;;;;;;6194361;23;20024;-80
2023/08/16 04:00:03;;;;;;;10.77;7.20;;;21.00;99.90;;;;;;6195069;23;20444;-80
2023/08/16 04:02:40;;;;;;;13.43;6.97;;;20.90;99.90;;;;;;6219922;23;20756;-79
2023/08/16 04:05:11;;;;;;;12.13;7.53;;;20.90;99.90;;;;;;6192576;23;20028;-80
2023/08/16 04:07:39;;;;;;;11.35;6.93;;;20.90;99.90;;;;;;6217524;23;20026;-79
2023/08/16 04:10:07;;;;;;;11.88;7.18;;;21.00;99.90;;;;;;6192621;23;20095;-79
2023/08/16 04:12:36;;;;;;;12.30;6.97;;;20.90;99.90;;;;;;6193575;22;20024;-80
2023/08/16 04:15:03;;;;;;;12.82;7.45;;;21.00;99.90;;;;;;6192883;23;20111;-80
2023/08/16 04:17:31;;;;;;;11.45;6.78;;;20.90;99.90;;;;;;6220314;23;20035;-79
2023/08/16 04:19:58;;;;;;;10.85;6.57;;;20.90;99.90;;;;;;6218760;23;20023;-80
2023/08/16 04:22:26;;;;;;;10.82;7.10;;;20.90;99.90;;;;;;6219345;23;20355;-80
2023/08/16 04:24:54;;;;;;;13.35;7.93;;;21.00;99.90;;;;;;6219532;23;20020;-80
2023/08/16 04:27:21;;;;;;;9.60;6.72;;;21.00;99.90;;;;;;6194133;23;20020;-80
2023/08/16 04:29:49;;;;;;;11.80;7.22;;;21.10;99.90;;;;;;6194800;23;20450;-80
2023/08/16 04:32:16;;;;;;;12.65;6.93;;;21.10;99.90;;;;;;6193319;23;20028;-80
2023/08/16 04:34:44;;;;;;;9.80;7.10;;;21.10;99.90;;;;;;6216962;23;20023;-80
2023/08/16 04:37:11;;;;;;;13.90;8.20;;;21.10;99.90;;;;;;6217674;23;20028;-80
2023/08/16 04:39:39;;;;;;;14.32;7.30;;;20.60;99.90;;;;;;6193628;23;20442;-80
2023/08/16 04:42:06;;;;;;;9.35;7.50;;;20.80;99.90;;;;;;6192647;23;20348;-80
2023/08/16 04:44:33;;;;;;;14.50;7.05;;;21.10;99.90;;;;;;6192900;23;20020;-80
2023/08/16 04:47:01;;;;;;;14.07;7.97;;;21.10;99.90;;;;;;6194527;23;20040;-80
2023/08/16 04:49:28;;;;;;;14.60;7.95;;;21.20;99.90;;;;;;6218285;23;20518;-80
2023/08/16 04:51:55;;;;;;;12.77;7.40;;;21.10;99.90;;;;;;6217981;23;20066;-80
2023/08/16 04:54:23;;;;;;;13.32;7.28;;;21.10;99.90;;;;;;6218256;23;20043;-80
2023/08/16 04:56:50;;;;;;;10.48;7.25;;;21.20;99.90;;;;;;6193189;23;20020;-80
2023/08/16 04:59:19;;;;;;;13.70;7.93;;;21.20;99.90;;;;;;6193868;23;20024;-80
2023/08/16 05:01:47;;;;;;;11.60;7.32;;;21.10;99.90;;;;;;6217831;23;20027;-80
2023/08/16 05:04:15;;;;;;;11.63;7.22;;;21.20;99.90;;;;;;6219073;23;20057;-80
2023/08/16 05:06:42;;;;;;;11.98;7.43;;;21.20;99.90;;;;;;6217034;23;20356;-80
2023/08/16 05:09:13;;;;;;;10.02;6.95;;;21.20;99.90;;;;;;6218291;23;20103;-80
2023/08/16 05:11:40;;;;;;;13.00;7.82;;;21.30;99.90;;;;;;6193259;23;20636;-80
2023/08/16 05:14:07;;;;;;;11.75;8.05;;;21.30;99.90;;;;;;6193490;23;20020;-80
2023/08/16 05:16:35;;;;;;;14.18;8.07;;;21.30;99.90;;;;;;6194038;23;20754;-80
2023/08/16 05:19:02;;;;;;;15.88;7.97;;;21.40;99.90;;;;;;6219638;23;20099;-80
2023/08/16 05:21:30;;;;;;;10.07;7.50;;;21.40;99.90;;;;;;6194008;23;20106;-80
2023/08/16 05:23:58;;;;;;;14.20;7.65;;;21.50;99.90;;;;;;6244887;23;20012;-80
2023/08/16 05:26:25;;;;;;;10.25;6.63;;;21.60;99.90;;;;;;6194406;23;20402;-80
2023/08/16 05:28:52;;;;;;;14.50;7.78;;;21.70;99.90;;;;;;6218291;23;20043;-80
2023/08/16 05:31:19;;;;;;;10.75;7.32;;;21.70;99.90;;;;;;6218972;23;20044;-80
2023/08/16 05:33:46;;;;;;;10.02;7.00;;;21.90;99.90;;;;;;6217199;23;20325;-78
2023/08/16 05:36:14;;;;;;;13.15;7.13;;;21.90;99.90;;;;;;6193027;23;20016;-79
2023/08/16 05:38:41;;;;;;;10.85;6.63;;;22.00;99.90;;;;;;6217072;23;20340;-79
2023/08/16 05:41:08;;;;;;;10.00;6.50;;;22.10;99.90;;;;;;6190060;23;20052;-80
2023/08/16 05:43:35;;;;;;;12.45;7.50;;;22.10;99.90;;;;;;6190867;23;20111;-80
2023/08/16 05:46:02;;;;;;;13.65;7.72;;;22.20;99.90;;;;;;6189470;23;20046;-78
2023/08/16 05:48:29;;;;;;;12.27;8.20;;;22.20;99.90;;;;;;6189838;23;20047;-80
2023/08/16 05:50:56;;;;;;;13.00;8.10;;;22.20;99.90;;;;;;6217164;23;20024;-80
2023/08/16 05:53:23;;;;;;;16.42;7.28;;;22.30;99.90;;;;;;6191979;23;20031;-81
2023/08/16 05:55:51;;;;;;;11.93;6.55;;;22.30;99.90;;;;;;6192598;23;20506;-81
2023/08/16 05:58:20;;;;;;;11.73;6.28;;;22.40;99.90;;;;;;6218049;23;20026;-80
2023/08/16 06:00:49;;;;;;;14.18;7.22;;;22.40;99.90;;;;;;6219234;23;20028;-80
2023/08/16 06:03:16;;;;;;;13.60;7.45;;;22.50;99.90;;;;;;6192277;23;20031;-81
2023/08/16 06:05:43;;;;;;;11.15;7.03;;;22.50;99.90;;;;;;6217509;23;20020;-80
2023/08/16 06:08:10;;;;;;;15.50;7.22;;;22.50;99.90;;;;;;6192541;23;20103;-81
2023/08/16 06:10:37;;;;;;;15.38;7.57;;;22.50;99.90;;;;;;6192736;23;20107;-81
2023/08/16 06:13:04;;;;;;;13.27;7.75;;;22.60;99.90;;;;;;6192752;23;20020;-82
2023/08/16 06:15:31;;;;;;;10.73;7.63;;;22.80;99.90;;;;;;6192444;23;20082;-82
2023/08/16 06:17:59;;;;;;;10.98;7.18;;;22.90;99.90;;;;;;6192825;23;20078;-82
2023/08/16 06:20:26;;;;;;;11.20;7.75;;;23.10;99.90;;;;;;6219038;23;20082;-82
2023/08/16 06:22:53;;;;;;;10.68;6.55;;;23.20;99.90;;;;;;6194777;23;20022;-82
2023/08/16 06:25:20;;;;;;;10.32;6.65;;;23.30;99.90;;;;;;6195246;23;20048;-82
2023/08/16 06:27:48;;;;;;;12.90;7.35;;;23.50;99.90;;;;;;6220804;23;20090;-82
2023/08/16 06:30:15;;;;;;;10.77;7.00;;;23.50;99.90;;;;;;6196094;23;20024;-82
2023/08/16 06:32:44;;;;;;;13.45;7.25;;;23.30;99.90;;;;;;6220109;23;20387;-82
2023/08/16 06:35:11;;;;;;;10.05;6.75;;;23.10;99.90;;;;;;6218716;23;20098;-81
2023/08/16 06:37:39;;;;;;;14.40;8.63;;;23.00;99.90;;;;;;6220356;23;20050;-80
2023/08/16 06:40:07;;;;;;;11.88;8.13;;;23.00;99.90;;;;;;6220910;23;20078;-81
2023/08/16 06:42:35;;;;;;;8.98;6.60;;;23.00;99.90;;;;;;6195042;23;20016;-81
2023/08/16 06:45:03;;;;;;;15.00;6.78;;;23.00;99.90;;;;;;6195637;23;20027;-81
2023/08/16 06:47:30;;;;;;;15.52;7.72;;;23.10;99.90;;;;;;6219743;23;20012;-83
2023/08/16 06:49:57;;;;;;;9.63;7.55;;;23.00;99.90;;;;;;6220002;23;20016;-81
2023/08/16 06:52:24;;;;;;;10.10;7.53;;;23.10;99.90;;;;;;6212846;23;20134;-83
2023/08/16 06:54:51;;;;;;;9.63;7.68;;;23.10;99.90;;;;;;6194356;23;20044;-82
2023/08/16 06:57:18;;;;;;;11.00;7.65;;;23.10;99.90;;;;;;6193324;23;20285;-82
2023/08/16 06:59:45;;;;;;;11.05;8.13;;;23.20;99.90;;;;;;6220551;23;20056;-82
2023/08/16 07:02:14;;;;;;;11.55;7.32;;;23.10;99.90;;;;;;6215485;23;20123;-82
2023/08/16 07:04:45;;;;;;;14.38;8.13;;;23.10;99.90;;;;;;6194932;23;20027;-80
2023/08/16 07:07:12;;;;;;;12.25;7.93;;;23.10;99.90;;;;;;6191125;23;20027;-82
2023/08/16 07:09:39;;;;;;;13.35;8.63;;;23.10;99.90;;;;;;6192384;23;20036;-82
2023/08/16 07:12:07;;;;;;;10.57;8.07;;;23.20;99.90;;;;;;6193756;23;20066;-82
2023/08/16 07:14:34;;;;;;;12.13;8.38;;;23.20;99.90;;;;;;6192372;23;20016;-82
2023/08/16 07:17:05;;;;;;;8.85;7.75;;;23.20;99.90;;;;;;6192223;23;20402;-82
2023/08/16 07:19:32;;;;;;;12.13;8.00;;;23.20;99.90;;;;;;6218348;23;20020;-82
2023/08/16 07:21:59;;;;;;;11.38;7.80;;;23.30;99.90;;;;;;6194310;23;20028;-83
2023/08/16 07:24:26;;;;;;;9.98;7.57;;;23.30;99.90;;;;;;6215316;23;20012;-82
2023/08/16 07:26:53;;;;;;;12.98;8.57;;;23.50;99.90;;;;;;6195113;23;20017;-83
2023/08/16 07:29:21;;;;;;;12.32;7.80;;;23.60;99.90;;;;;;6195052;23;20024;-82
2023/08/16 07:31:48;;;;;;;10.13;7.88;;;23.70;99.90;;;;;;6218219;23;20016;-82
2023/08/16 07:34:15;;;;;;;12.45;8.85;;;23.70;99.90;;;;;;6219585;23;20020;-83
2023/08/16 07:36:42;;;;;;;10.30;8.20;;;23.60;99.90;;;;;;6194222;23;20678;-81
2023/08/16 07:39:09;;;;;;;11.77;8.02;;;23.70;99.90;;;;;;6215335;23;20032;-82
2023/08/16 07:41:36;;;;;;;10.85;9.23;;;23.80;99.90;;;;;;6206345;23;20087;-82
2023/08/16 07:44:04;;;;;;;10.20;7.30;;;23.90;99.90;;;;;;6218667;23;20102;-81
2023/08/16 07:46:31;;;;;;;12.60;8.48;;;24.00;99.90;;;;;;6188758;23;20028;-80
2023/08/16 07:48:58;;;;;;;12.65;8.23;;;24.10;99.90;;;;;;6195864;23;20070;-83
2023/08/16 07:51:25;;;;;;;11.05;7.57;;;24.10;99.90;;;;;;6220955;23;20015;-81
2023/08/16 07:53:53;;;;;;;9.50;7.57;;;24.20;99.90;;;;;;6220934;23;20505;-81
2023/08/16 07:56:20;;;;;;;11.77;7.70;;;24.20;99.90;;;;;;6199069;23;20031;-82
2023/08/16 07:58:47;;;;;;;11.65;8.48;;;24.30;99.90;;;;;;6224076;23;20024;-83
2023/08/16 08:01:15;;;;;;;12.15;8.55;;;24.40;99.90;;;;;;6221333;23;20031;-80
2023/08/16 08:03:42;;;;;;;11.52;7.05;;;24.70;99.90;;;;;;6220159;23;20741;-81
2023/08/16 08:06:09;;;;;;;9.25;7.55;;;24.70;99.90;;;;;;6220939;23;20046;-82
2023/08/16 08:08:36;;;;;;;10.15;7.78;;;24.60;99.90;;;;;;6218121;23;20074;-80
2023/08/16 08:11:07;;;;;;;8.07;7.05;;;24.50;99.90;;;;;;6193676;23;20440;-80
2023/08/16 08:13:34;;;;;;;11.27;7.30;;;24.60;99.90;;;;;;6218020;23;20020;-81
2023/08/16 08:16:01;;;;;;;10.43;6.80;;;25.10;99.90;;;;;;6218253;23;20405;-77
2023/08/16 08:18:29;;;;;;;11.45;7.75;;;25.40;99.50;;;;;;6194040;23;20062;-79
2023/08/16 08:20:59;;;;;;;13.52;8.73;;;25.60;99.00;;;;;;6219072;23;20616;-81
2023/08/16 08:23:26;;;;;;;11.27;7.75;;;25.60;97.80;;;;;;6219943;23;20550;-81
2023/08/16 08:25:53;;;;;;;9.52;7.13;;;25.70;97.30;;;;;;6218983;23;20012;-81
2023/08/16 08:28:22;;;;;;;12.50;6.82;;;25.80;98.10;;;;;;6210691;23;20128;-82
2023/08/16 08:30:49;;;;;;;10.68;6.55;;;25.80;97.30;;;;;;6194709;23;20107;-79
2023/08/16 08:33:17;;;;;;;10.05;7.30;;;25.90;97.70;;;;;;6217707;23;20058;-82
2023/08/16 08:35:44;;;;;;;8.52;6.45;;;26.10;97.40;;;;;;6217753;23;20074;-79
2023/08/16 08:38:11;;;;;;;10.45;7.20;;;26.20;97.00;;;;;;6246469;23;20050;-79
2023/08/16 08:40:38;;;;;;;13.18;7.82;;;26.20;97.20;;;;;;6193278;23;20257;-78
2023/08/16 08:43:06;;;;;;;10.60;6.88;;;26.30;96.90;;;;;;6219768;23;20020;-78
2023/08/16 08:45:34;;;;;;;11.27;7.55;;;26.30;96.60;;;;;;6220405;23;20407;-79
2023/08/16 08:48:02;;;;;;;9.60;7.25;;;26.40;96.30;;;;;;6218920;23;20494;-81
2023/08/16 08:50:30;;;;;;;8.25;6.65;;;26.30;96.50;;;;;;6219604;23;20066;-81
2023/08/16 08:53:00;;;;;;;8.82;7.18;;;26.50;97.30;;;;;;6246825;23;20435;-79
2023/08/16 08:55:32;;;;;;;9.23;7.15;;;26.50;96.00;;;;;;6219782;23;20024;-78
2023/08/16 08:58:01;;;;;;;8.93;6.68;;;26.50;95.30;;;;;;6218024;23;20027;-80
2023/08/16 09:00:37;;;;;;;10.57;7.97;;;26.50;95.50;;;;;;6219092;23;20049;-80
2023/08/16 09:03:07;;;;;;;7.57;6.40;;;26.40;94.90;;;;;;6219127;23;20066;-80
2023/08/16 09:05:38;;;;;;;10.05;6.32;;;26.50;94.80;;;;;;6220006;23;20030;-80
2023/08/16 09:08:06;;;;;;;8.77;6.22;;;26.50;93.90;;;;;;6194213;23;20459;-79
2023/08/16 09:10:36;;;;;;;11.02;6.70;;;26.40;95.00;;;;;;6219872;23;20028;-81
2023/08/16 09:13:05;;;;;;;9.55;6.40;;;26.40;94.50;;;;;;6219056;23;20020;-80
2023/08/16 09:15:33;;;;;;;9.00;7.72;;;26.20;94.60;;;;;;6245282;23;20026;-81
2023/08/16 09:18:11;;;;;;;8.15;6.72;;;26.20;94.80;;;;;;6218446;23;20031;-78
2023/08/16 09:20:44;;;;;;;11.32;6.85;;;26.30;95.20;;;;;;6233387;23;20734;-82
2023/08/16 09:23:17;;;;;;;8.05;6.72;;;26.30;93.30;;;;;;6217485;23;20127;-81
2023/08/16 09:25:45;;;;;;;8.82;6.70;;;26.30;93.90;;;;;;6220164;23;20022;-79
2023/08/16 09:28:14;;;;;;;9.07;6.82;;;26.20;93.50;;;;;;6192168;23;20020;-82
2023/08/16 09:30:42;;;;;;;9.65;7.03;;;26.00;93.90;;;;;;6192888;23;20035;-81
2023/08/16 09:33:13;;;;;;;11.10;7.15;;;26.00;94.20;;;;;;6192842;23;20051;-82
2023/08/16 09:35:48;;;;;;;13.00;6.68;;;25.90;93.90;;;;;;6218153;23;20031;-81
2023/08/16 09:38:15;;;;;;;9.25;6.63;;;25.80;93.70;;;;;;6194509;23;20043;-79
2023/08/16 09:40:51;;;;;;;7.78;6.55;;;26.00;94.00;;;;;;6246434;23;20386;-79
2023/08/16 09:43:19;;;;;;;9.65;6.07;;;26.40;93.90;;;;;;6215202;23;20077;-79
2023/08/16 09:45:54;;;;;;;10.45;5.13;;;26.50;92.70;;;;;;6216621;23;20070;-81
2023/08/16 09:48:24;;;;;;;10.50;6.05;;;26.70;92.30;;;;;;6214633;23;20028;-82
2023/08/16 09:51:00;;;;;;;7.82;5.82;;;26.80;91.70;;;;;;6192135;23;20773;-80
2023/08/16 09:53:44;;;;;;;7.18;5.63;;;26.80;91.90;;;;;;6220273;23;20023;-81
2023/08/16 09:56:15;;;;;;;7.35;5.63;;;26.80;91.80;;;;;;6219184;23;20032;-78
2023/08/16 09:58:45;;;;;;;7.90;5.45;;;26.80;91.20;;;;;;6243545;23;20626;-82
2023/08/16 10:01:12;;;;;;;6.47;5.00;;;26.70;91.70;;;;;;6216537;23;20023;-81
2023/08/16 10:03:44;;;;;;;7.05;5.70;;;26.90;92.50;;;;;;6218627;23;20647;-81
2023/08/16 10:06:33;;;;;;;7.90;5.93;;;26.90;91.70;;;;;;6243500;23;20020;-81
2023/08/16 10:09:07;;;;;;;7.45;5.30;;;26.80;91.50;;;;;;6218317;23;20031;-82
2023/08/16 10:11:37;;;;;;;6.60;5.35;;;26.90;92.40;;;;;;6219406;23;20016;-82
2023/08/16 10:14:08;;;;;;;8.18;5.40;;;27.10;92.20;;;;;;6194275;23;20078;-81
2023/08/16 10:16:37;;;;;;;8.77;5.43;;;27.20;93.00;;;;;;6206585;23;20106;-82
2023/08/16 10:19:04;;;;;;;7.80;6.00;;;27.10;92.20;;;;;;6195343;23;20098;-81
2023/08/16 10:21:37;;;;;;;10.43;6.05;;;26.90;92.40;;;;;;6219042;23;20095;-79
2023/08/16 10:24:09;;;;;;;8.82;6.05;;;26.80;92.70;;;;;;6195070;23;20023;-81
2023/08/16 10:26:38;;;;;;;9.43;5.93;;;26.90;92.90;;;;;;6193099;23;20313;-80
2023/08/16 10:29:13;;;;;;;8.85;5.80;;;26.80;92.80;;;;;;6219802;23;20443;-82
2023/08/16 10:31:46;;;;;;;8.40;6.00;;;26.90;92.70;;;;;;6219364;23;20447;-81
2023/08/16 10:34:15;;;;;;;8.98;6.43;;;26.90;93.10;;;;;;6218260;23;20024;-81
2023/08/16 10:36:42;;;;;;;13.68;7.10;;;26.90;93.40;;;;;;6218335;23;20882;-81
2023/08/16 10:39:22;;;;;;;12.52;6.32;;;26.80;92.90;;;;;;6195439;23;20020;-79
2023/08/16 10:41:51;;;;;;;7.22;6.00;;;26.80;93.00;;;;;;6194411;23;20023;-80
2023/08/16 10:44:23;;;;;;;9.32;5.57;;;26.80;93.10;;;;;;6194422;23;20713;-78
2023/08/16 10:46:50;;;;;;;;;;;27.00;92.90;;;;;;6219229;23;20716;-81
2023/08/16 10:49:18;;;;;;;6.70;5.82;;;27.00;92.30;;;;;;6194763;23;19931;-80
2023/08/16 10:51:47;;;;;;;9.05;5.82;;;26.80;92.40;;;;;;6219402;23;20031;-82
2023/08/16 10:54:15;;;;;;;8.95;6.38;;;26.90;92.90;;;;;;6246542;23;20383;-82
2023/08/16 10:56:49;;;;;;;9.82;6.05;;;27.20;92.90;;;;;;6192902;23;20034;-82
2023/08/16 10:59:17;;;;;;;8.75;5.65;;;27.30;92.50;;;;;;6218939;23;20689;-82
2023/08/16 11:01:50;;;;;;;15.70;6.93;;;27.40;92.80;;;;;;6218750;23;20103;-81
2023/08/16 11:04:18;;;;;;;11.00;5.65;;;27.30;92.20;;;;;;6219556;23;20024;-82
2023/08/16 11:06:46;;;;;;;11.35;6.00;;;27.10;92.00;;;;;;6219059;23;20094;-81
2023/08/16 11:09:31;;;;;;;12.27;6.00;;;27.00;91.60;;;;;;6196795;23;20035;-82
2023/08/16 11:12:03;;;;;;;11.77;5.90;;;27.00;93.30;;;;;;6219292;23;20012;-82
2023/08/16 11:14:32;;;;;;;9.50;5.85;;;27.00;91.90;;;;;;6219038;23;20062;-82
2023/08/16 11:17:01;;;;;;;7.82;5.53;;;27.00;92.70;;;;;;6219042;23;20024;-82
2023/08/16 11:19:29;;;;;;;8.85;6.07;;;27.20;93.00;;;;;;6193611;23;20031;-81
2023/08/16 11:21:58;;;;;;;8.15;5.90;;;27.10;92.50;;;;;;6192836;23;20023;-81
2023/08/16 11:24:26;;;;;;;9.82;6.20;;;27.10;92.80;;;;;;6220682;23;20093;-82
2023/08/16 11:26:54;;;;;;;10.43;6.22;;;27.10;91.80;;;;;;6220205;23;20098;-83
2023/08/16 11:29:21;;;;;;;11.18;7.25;;;27.20;92.80;;;;;;6221137;23;20329;-82
2023/08/16 11:31:58;;;;;;;8.85;5.97;;;27.10;91.60;;;;;;6220208;23;20020;-82
2023/08/16 11:34:25;;;;;;;9.80;6.20;;;27.20;92.30;;;;;;6248099;23;20026;-80
2023/08/16 11:36:52;;;;;;;10.70;6.55;;;27.20;93.40;;;;;;6196657;23;20106;-81
2023/08/16 11:39:22;;;;;;;9.45;6.25;;;27.20;92.40;;;;;;6219595;23;20029;-82
2023/08/16 11:41:49;;;;;;;9.80;5.88;;;27.20;92.80;;;;;;6247080;23;20024;-82
2023/08/16 11:44:16;;;;;;;9.60;5.47;;;27.30;93.70;;;;;;6219664;23;20054;-84
2023/08/16 11:46:47;;;;;;;11.30;6.05;;;27.30;91.60;;;;;;6219689;23;20437;-84
2023/08/16 11:49:18;;;;;;;7.95;5.25;;;27.30;90.80;;;;;;6220354;23;20035;-83
2023/08/16 11:51:45;;;;;;;6.43;5.60;;;27.30;91.70;;;;;;6220237;23;20119;-80
2023/08/16 11:54:23;;;;;;;10.20;6.47;;;27.40;91.80;;;;;;6219862;23;20814;-80
2023/08/16 11:56:51;;;;;;;8.90;5.90;;;27.40;91.60;;;;;;6220577;23;20391;-83
2023/08/16 11:59:28;;;;;;;8.90;5.15;;;27.50;91.20;;;;;;6171142;23;20116;-82
2023/08/16 12:01:56;;;;;;;11.25;5.20;;;27.40;91.60;;;;;;6220069;23;20502;-82
2023/08/16 12:04:24;;;;;;;6.28;5.07;;;27.50;90.20;;;;;;6219242;23;20027;-81
2023/08/16 12:06:52;;;;;;;8.15;5.38;;;27.40;89.90;;;;;;6219410;23;20016;-82
2023/08/16 12:09:19;;;;;;;5.82;5.00;;;27.40;90.70;;;;;;6220532;23;20015;-81
2023/08/16 12:11:51;;;;;;;7.68;5.43;;;27.50;90.70;;;;;;6195445;23;20352;-80
2023/08/16 12:14:18;;;;;;;7.38;4.85;;;27.40;89.60;;;;;;6218810;23;20491;-82
2023/08/16 12:16:46;;;;;;;8.85;5.18;;;27.60;90.50;;;;;;6246628;23;20074;-82
2023/08/16 12:19:19;;;;;;;9.00;5.28;;;27.60;90.20;;;;;;6220288;23;20090;-82
2023/08/16 12:21:47;;;;;;;8.43;5.20;;;27.50;91.00;;;;;;6244801;23;20020;-82
2023/08/16 12:24:14;;;;;;;6.55;5.32;;;27.60;90.90;;;;;;6220209;23;20016;-83
2023/08/16 12:26:42;;;;;;;7.28;5.60;;;27.60;89.80;;;;;;6221305;23;20020;-82
2023/08/16 12:29:09;;;;;;;9.73;5.00;;;27.50;89.00;;;;;;6221110;23;20016;-82
2023/08/16 12:31:37;;;;;;;6.22;4.85;;;27.50;90.40;;;;;;6207418;23;20657;-81
2023/08/16 12:34:06;;;;;;;8.77;4.78;;;27.60;89.40;;;;;;6219231;23;20026;-83
2023/08/16 12:36:34;;;;;;;6.18;4.30;;;27.60;90.40;;;;;;6220694;23;20028;-82
2023/08/16 12:39:01;;;;;;;5.60;4.43;;;27.60;89.30;;;;;;6247334;23;20386;-83
2023/08/16 12:41:28;;;;;;;6.68;4.80;;;27.60;89.10;;;;;;6220834;23;20455;-81
2023/08/16 12:43:55;;;;;;;8.80;5.90;;;27.70;90.00;;;;;;6220542;23;20304;-83
2023/08/16 12:46:22;;;;;;;5.57;5.03;;;27.70;89.00;;;;;;6194874;23;20399;-83
2023/08/16 12:48:50;;;;;;;5.43;4.88;;;27.70;88.70;;;;;;6219174;23;20070;-82